Costa Victoria — IBLC — position and weather

sailwx.info

Track history (hours):
 
Tides and Currents Weather Stations Pressure Air Temp Water Temp Dewpoint Dewpoint Depression Visibility Wind Speed Wind Dir Waves Ship Positions

Costa Victoria

Last reported at 2019-Sep-17 07:58 UTC. Time now 2019-Sep-17 08:26 UTC.
Position N 37°27' E 025°19'.

Length 252 m; draft 8.1 m.

Type: Passenger vessel. MMSI: 247109000.

Date/timePositionNaut miles runAvg speedWind from/ knotsBaromVisibWave heightAir tempDewpointWater temp
2019-Sep-17 07:58N 37°27' E 025°19'0 0.0
2019-Sep-17 07:28N 37°27' E 025°19'0 0.0
2019-Sep-17 06:58N 37°27' E 025°19'0 0.0
2019-Sep-17 06:28N 37°27' E 025°19'0 0.0
2019-Sep-17 05:58N 37°27' E 025°19'0 0.0
2019-Sep-17 05:28N 37°27' E 025°19'0 0.0
2019-Sep-17 04:55N 37°27' E 025°19'0 0.0
2019-Sep-17 04:22N 37°27' E 025°19'0 0.0
2019-Sep-17 03:55N 37°27' E 025°19'0 0.1
2019-Sep-17 03:28N 37°28' E 025°19'0 0.6
2019-Sep-17 03:01N 37°28' E 025°19'611.2
2019-Sep-17 02:30N 37°28' E 025°12'714.9
2019-Sep-17 02:00N 37°21' E 025°07'815.5
2019-Sep-17 01:30N 37°16' E 025°00'816.1
2019-Sep-17 01:00N 37°12' E 024°51'  
2019-Sep-12 13:39N 37°19' E 023°37'316.2
2019-Sep-12 13:29N 37°22' E 023°39'816.8
2019-Sep-12 13:00N 37°29' E 023°41'917.5
2019-Sep-12 12:30N 37°38' E 023°42'816.7
2019-Sep-12 12:01N 37°46' E 023°39'816.4
2019-Sep-12 11:31N 37°54' E 023°37'3 5.2
2019-Sep-12 10:58N 37°56' E 023°38'0 0.0
2019-Sep-12 10:19N 37°56' E 023°38'0 0.0
2019-Sep-12 09:58N 37°56' E 023°38'0 0.0
2019-Sep-12 09:28N 37°56' E 023°38'0 0.0
2019-Sep-12 08:49N 37°56' E 023°38'0 0.0
2019-Sep-12 08:25N 37°56' E 023°38'0 0.0
2019-Sep-12 07:58N 37°56' E 023°38'0 0.0
2019-Sep-12 07:28N 37°56' E 023°38'0 0.0
2019-Sep-12 06:55N 37°56' E 023°38'0 0.0
2019-Sep-12 06:25N 37°56' E 023°38'0 0.0
2019-Sep-12 05:58N 37°56' E 023°38'0 0.0
2019-Sep-12 05:22N 37°56' E 023°38'0 0.0
2019-Sep-12 04:58N 37°56' E 023°38'0 0.0
2019-Sep-12 04:28N 37°56' E 023°38'0 0.0
2019-Sep-12 03:58N 37°56' E 023°38'0 0.0
2019-Sep-12 03:28N 37°56' E 023°38'0 0.0
2019-Sep-12 02:58N 37°56' E 023°38'0 0.0
2019-Sep-12 02:28N 37°56' E 023°38'0 0.0
2019-Sep-12 01:58N 37°56' E 023°38'0 0.4
2019-Sep-12 01:30N 37°56' E 023°38'3 5.8
2019-Sep-12 01:00N 37°54' E 023°38'815.2
2019-Sep-12 00:30N 37°47' E 023°42'815.2
2019-Sep-12 00:01N 37°40' E 023°45'815.1
2019-Sep-11 23:30N 37°32' E 023°45'915.4
2019-Sep-11 22:57N 37°23' E 023°45'816.0
2019-Sep-11 22:27N 37°15' E 023°45'5213.4
2019-Sep-11 18:37N 37°12' E 024°49'216.6
2019-Sep-11 18:31N 37°13' E 024°51'816.9
2019-Sep-11 18:01N 37°17' E 025°01'816.1
2019-Sep-11 17:31N 37°23' E 025°08'714.6
2019-Sep-11 17:01N 37°28' E 025°14'4 7.7
2019-Sep-11 16:30N 37°27' E 025°19'0 0.2
2019-Sep-11 16:01N 37°27' E 025°19'0 0.1
2019-Sep-11 15:31N 37°27' E 025°19'0 0.0
2019-Sep-11 14:49N 37°27' E 025°19'0 0.0
2019-Sep-11 14:31N 37°27' E 025°19'0 0.0
2019-Sep-11 14:01N 37°27' E 025°19'0 0.0
2019-Sep-11 13:31N 37°27' E 025°19'0 0.0
2019-Sep-11 13:00N 37°27' E 025°19'0 0.0
2019-Sep-11 12:19N 37°27' E 025°19'0 0.0
2019-Sep-11 11:57N 37°27' E 025°19'0 0.0
2019-Sep-11 11:31N 37°27' E 025°19'0 0.0
2019-Sep-11 11:01N 37°27' E 025°19'0 0.0
2019-Sep-11 10:28N 37°27' E 025°19'0 0.0
2019-Sep-11 10:00N 37°27' E 025°19'0 0.0
2019-Sep-11 09:31N 37°27' E 025°19'0 0.0
2019-Sep-11 09:01N 37°27' E 025°19'0 0.0
2019-Sep-11 08:30N 37°27' E 025°19'0 0.0
2019-Sep-11 08:01N 37°27' E 025°19'0 0.0
2019-Sep-11 07:24N 37°27' E 025°19'0 0.0
2019-Sep-11 06:55N 37°27' E 025°19'0 0.0
2019-Sep-11 06:31N 37°27' E 025°19'0 0.0
2019-Sep-11 06:01N 37°27' E 025°19'0 0.0
2019-Sep-11 05:31N 37°27' E 025°19'0 0.0
2019-Sep-11 05:01N 37°27' E 025°19'0 0.0
2019-Sep-11 04:30N 37°27' E 025°19'0 0.0
2019-Sep-11 04:01N 37°27' E 025°19'0 0.0
2019-Sep-11 03:28N 37°27' E 025°19'0 0.0
2019-Sep-11 03:01N 37°27' E 025°19'0 0.0
2019-Sep-11 02:31N 37°27' E 025°19'0 0.0
2019-Sep-11 02:01N 37°27' E 025°19'0 0.0
2019-Sep-11 01:31N 37°27' E 025°19'0 0.0
2019-Sep-11 01:01N 37°27' E 025°19'0 0.0
2019-Sep-11 00:31N 37°27' E 025°19'0 0.0
2019-Sep-11 00:01N 37°27' E 025°19'0 0.0
2019-Sep-10 23:31N 37°27' E 025°19'0 0.0
2019-Sep-10 22:58N 37°27' E 025°19'0 0.0
2019-Sep-10 22:31N 37°27' E 025°19'0 0.0
2019-Sep-10 22:01N 37°27' E 025°19'0 0.0
2019-Sep-10 21:31N 37°27' E 025°19'0 0.0
2019-Sep-10 21:01N 37°27' E 025°19'0 0.0
2019-Sep-10 20:31N 37°27' E 025°19'0 0.0
2019-Sep-10 20:01N 37°27' E 025°19'0 0.0
2019-Sep-10 19:31N 37°27' E 025°19'0 0.0
2019-Sep-10 19:01N 37°27' E 025°19'0 0.0
2019-Sep-10 18:31N 37°27' E 025°19'0 0.0
2019-Sep-10 18:00N 37°27' E 025°19'0 0.0
2019-Sep-10 17:31N 37°27' E 025°19'0 0.0
2019-Sep-10 16:58N 37°27' E 025°19'0 0.0
2019-Sep-10 16:28N 37°27' E 025°19'0 0.0
2019-Sep-10 16:01N 37°27' E 025°19'0 0.0
2019-Sep-10 15:25N 37°27' E 025°19'0 0.0
2019-Sep-10 15:00N 37°27' E 025°19'0 0.0
2019-Sep-10 14:27N 37°27' E 025°19'0 0.0
2019-Sep-10 13:55N 37°27' E 025°19'0 0.0
2019-Sep-10 13:31N 37°27' E 025°19'0 0.0
2019-Sep-10 13:01N 37°27' E 025°19'0 0.0
2019-Sep-10 12:25N 37°27' E 025°19'0 0.0
2019-Sep-10 12:01N 37°27' E 025°19'0 0.0
2019-Sep-10 11:28N 37°27' E 025°19'0 0.0
2019-Sep-10 10:57N 37°27' E 025°19'0 0.0
2019-Sep-10 10:28N 37°27' E 025°19'0 0.0
2019-Sep-10 09:58N 37°27' E 025°19'0 0.0
2019-Sep-10 09:22N 37°27' E 025°19'0 0.0
2019-Sep-10 08:58N 37°27' E 025°19'0 0.0
2019-Sep-10 08:24N 37°27' E 025°19'0 0.0
2019-Sep-10 07:58N 37°27' E 025°19'0 0.0
2019-Sep-10 07:31N 37°27' E 025°19'0 0.0
2019-Sep-10 07:01N 37°27' E 025°19'0 0.0
2019-Sep-10 06:31N 37°27' E 025°19'0 0.0
2019-Sep-10 06:01N 37°27' E 025°19'0 0.0
2019-Sep-10 05:30N 37°27' E 025°19'0 0.0
2019-Sep-10 04:58N 37°27' E 025°19'0 0.0
2019-Sep-10 04:28N 37°27' E 025°19'0 0.0
2019-Sep-10 03:51N 37°27' E 025°19'0 0.1
2019-Sep-10 03:31N 37°28' E 025°19'1 3.0
2019-Sep-10 03:00N 37°28' E 025°17'612.8
2019-Sep-10 02:31N 37°27' E 025°10'714.9
2019-Sep-10 02:01N 37°21' E 025°05'815.1
2019-Sep-10 01:31N 37°15' E 024°58'  
Track history (hours):
 
Tides and Currents Weather Stations Pressure Air Temp Water Temp Dewpoint Dewpoint Depression Visibility Wind Speed Wind Dir Waves Ship Positions

Costa Victoria

Last reported at 2019-Sep-17 07:58 UTC. Time now 2019-Sep-17 08:26 UTC.
Position N 37°27' E 025°19'.

Length 252 m; draft 8.1 m.

Type: Passenger vessel. MMSI: 247109000.

Date/timePositionNaut miles runAvg speedWind from/ knotsBaromVisibWave heightAir tempDewpointWater temp
2019-Sep-17 07:58N 37°27' E 025°19'0 0.0
2019-Sep-17 07:28N 37°27' E 025°19'0 0.0
2019-Sep-17 06:58N 37°27' E 025°19'0 0.0
2019-Sep-17 06:28N 37°27' E 025°19'0 0.0
2019-Sep-17 05:58N 37°27' E 025°19'0 0.0
2019-Sep-17 05:28N 37°27' E 025°19'0 0.0
2019-Sep-17 04:55N 37°27' E 025°19'0 0.0
2019-Sep-17 04:22N 37°27' E 025°19'0 0.0
2019-Sep-17 03:55N 37°27' E 025°19'0 0.1
2019-Sep-17 03:28N 37°28' E 025°19'0 0.6
2019-Sep-17 03:01N 37°28' E 025°19'611.2
2019-Sep-17 02:30N 37°28' E 025°12'714.9
2019-Sep-17 02:00N 37°21' E 025°07'815.5
2019-Sep-17 01:30N 37°16' E 025°00'816.1
2019-Sep-17 01:00N 37°12' E 024°51'  
2019-Sep-12 13:39N 37°19' E 023°37'316.2
2019-Sep-12 13:29N 37°22' E 023°39'816.8
2019-Sep-12 13:00N 37°29' E 023°41'917.5
2019-Sep-12 12:30N 37°38' E 023°42'816.7
2019-Sep-12 12:01N 37°46' E 023°39'816.4
2019-Sep-12 11:31N 37°54' E 023°37'3 5.2
2019-Sep-12 10:58N 37°56' E 023°38'0 0.0
2019-Sep-12 10:19N 37°56' E 023°38'0 0.0
2019-Sep-12 09:58N 37°56' E 023°38'0 0.0
2019-Sep-12 09:28N 37°56' E 023°38'0 0.0
2019-Sep-12 08:49N 37°56' E 023°38'0 0.0
2019-Sep-12 08:25N 37°56' E 023°38'0 0.0
2019-Sep-12 07:58N 37°56' E 023°38'0 0.0
2019-Sep-12 07:28N 37°56' E 023°38'0 0.0
2019-Sep-12 06:55N 37°56' E 023°38'0 0.0
2019-Sep-12 06:25N 37°56' E 023°38'0 0.0
2019-Sep-12 05:58N 37°56' E 023°38'0 0.0
2019-Sep-12 05:22N 37°56' E 023°38'0 0.0
2019-Sep-12 04:58N 37°56' E 023°38'0 0.0
2019-Sep-12 04:28N 37°56' E 023°38'0 0.0
2019-Sep-12 03:58N 37°56' E 023°38'0 0.0
2019-Sep-12 03:28N 37°56' E 023°38'0 0.0
2019-Sep-12 02:58N 37°56' E 023°38'0 0.0
2019-Sep-12 02:28N 37°56' E 023°38'0 0.0
2019-Sep-12 01:58N 37°56' E 023°38'0 0.4
2019-Sep-12 01:30N 37°56' E 023°38'3 5.8
2019-Sep-12 01:00N 37°54' E 023°38'815.2
2019-Sep-12 00:30N 37°47' E 023°42'815.2
2019-Sep-12 00:01N 37°40' E 023°45'815.1
2019-Sep-11 23:30N 37°32' E 023°45'915.4
2019-Sep-11 22:57N 37°23' E 023°45'816.0
2019-Sep-11 22:27N 37°15' E 023°45'5213.4
2019-Sep-11 18:37N 37°12' E 024°49'216.6
2019-Sep-11 18:31N 37°13' E 024°51'816.9
2019-Sep-11 18:01N 37°17' E 025°01'816.1
2019-Sep-11 17:31N 37°23' E 025°08'714.6
2019-Sep-11 17:01N 37°28' E 025°14'4 7.7
2019-Sep-11 16:30N 37°27' E 025°19'0 0.2
2019-Sep-11 16:01N 37°27' E 025°19'0 0.1
2019-Sep-11 15:31N 37°27' E 025°19'0 0.0
2019-Sep-11 14:49N 37°27' E 025°19'0 0.0
2019-Sep-11 14:31N 37°27' E 025°19'0 0.0
2019-Sep-11 14:01N 37°27' E 025°19'0 0.0
2019-Sep-11 13:31N 37°27' E 025°19'0 0.0
2019-Sep-11 13:00N 37°27' E 025°19'0 0.0
2019-Sep-11 12:19N 37°27' E 025°19'0 0.0
2019-Sep-11 11:57N 37°27' E 025°19'0 0.0
2019-Sep-11 11:31N 37°27' E 025°19'0 0.0
2019-Sep-11 11:01N 37°27' E 025°19'0 0.0
2019-Sep-11 10:28N 37°27' E 025°19'0 0.0
2019-Sep-11 10:00N 37°27' E 025°19'0 0.0
2019-Sep-11 09:31N 37°27' E 025°19'0 0.0
2019-Sep-11 09:01N 37°27' E 025°19'0 0.0
2019-Sep-11 08:30N 37°27' E 025°19'0 0.0
2019-Sep-11 08:01N 37°27' E 025°19'0 0.0
2019-Sep-11 07:24N 37°27' E 025°19'0 0.0
2019-Sep-11 06:55N 37°27' E 025°19'0 0.0
2019-Sep-11 06:31N 37°27' E 025°19'0 0.0
2019-Sep-11 06:01N 37°27' E 025°19'0 0.0
2019-Sep-11 05:31N 37°27' E 025°19'0 0.0
2019-Sep-11 05:01N 37°27' E 025°19'0 0.0
2019-Sep-11 04:30N 37°27' E 025°19'0 0.0
2019-Sep-11 04:01N 37°27' E 025°19'0 0.0
2019-Sep-11 03:28N 37°27' E 025°19'0 0.0
2019-Sep-11 03:01N 37°27' E 025°19'0 0.0
2019-Sep-11 02:31N 37°27' E 025°19'0 0.0
2019-Sep-11 02:01N 37°27' E 025°19'0 0.0
2019-Sep-11 01:31N 37°27' E 025°19'0 0.0
2019-Sep-11 01:01N 37°27' E 025°19'0 0.0
2019-Sep-11 00:31N 37°27' E 025°19'0 0.0
2019-Sep-11 00:01N 37°27' E 025°19'0 0.0
2019-Sep-10 23:31N 37°27' E 025°19'0 0.0
2019-Sep-10 22:58N 37°27' E 025°19'0 0.0
2019-Sep-10 22:31N 37°27' E 025°19'0 0.0
2019-Sep-10 22:01N 37°27' E 025°19'0 0.0
2019-Sep-10 21:31N 37°27' E 025°19'0 0.0
2019-Sep-10 21:01N 37°27' E 025°19'0 0.0
2019-Sep-10 20:31N 37°27' E 025°19'0 0.0
2019-Sep-10 20:01N 37°27' E 025°19'0 0.0
2019-Sep-10 19:31N 37°27' E 025°19'0 0.0
2019-Sep-10 19:01N 37°27' E 025°19'0 0.0
2019-Sep-10 18:31N 37°27' E 025°19'0 0.0
2019-Sep-10 18:00N 37°27' E 025°19'0 0.0
2019-Sep-10 17:31N 37°27' E 025°19'0 0.0
2019-Sep-10 16:58N 37°27' E 025°19'0 0.0
2019-Sep-10 16:28N 37°27' E 025°19'0 0.0
2019-Sep-10 16:01N 37°27' E 025°19'0 0.0
2019-Sep-10 15:25N 37°27' E 025°19'0 0.0
2019-Sep-10 15:00N 37°27' E 025°19'0 0.0
2019-Sep-10 14:27N 37°27' E 025°19'0 0.0
2019-Sep-10 13:55N 37°27' E 025°19'0 0.0
2019-Sep-10 13:31N 37°27' E 025°19'0 0.0
2019-Sep-10 13:01N 37°27' E 025°19'0 0.0
2019-Sep-10 12:25N 37°27' E 025°19'0 0.0
2019-Sep-10 12:01N 37°27' E 025°19'0 0.0
2019-Sep-10 11:28N 37°27' E 025°19'0 0.0
2019-Sep-10 10:57N 37°27' E 025°19'0 0.0
2019-Sep-10 10:28N 37°27' E 025°19'0 0.0
2019-Sep-10 09:58N 37°27' E 025°19'0 0.0
2019-Sep-10 09:22N 37°27' E 025°19'0 0.0
2019-Sep-10 08:58N 37°27' E 025°19'0 0.0
2019-Sep-10 08:24N 37°27' E 025°19'0 0.0
2019-Sep-10 07:58N 37°27' E 025°19'0 0.0
2019-Sep-10 07:31N 37°27' E 025°19'0 0.0
2019-Sep-10 07:01N 37°27' E 025°19'0 0.0
2019-Sep-10 06:31N 37°27' E 025°19'0 0.0
2019-Sep-10 06:01N 37°27' E 025°19'0 0.0
2019-Sep-10 05:30N 37°27' E 025°19'0 0.0
2019-Sep-10 04:58N 37°27' E 025°19'0 0.0
2019-Sep-10 04:28N 37°27' E 025°19'0 0.0
2019-Sep-10 03:51N 37°27' E 025°19'0 0.1
2019-Sep-10 03:31N 37°28' E 025°19'1 3.0
2019-Sep-10 03:00N 37°28' E 025°17'612.8
2019-Sep-10 02:31N 37°27' E 025°10'714.9
2019-Sep-10 02:01N 37°21' E 025°05'815.1
2019-Sep-10 01:31N 37°15' E 024°58'  

Dump ship's entire track history